Durant, Oklahoma
Current Conditions -  °F | °C
As of 1:15 AM on Saturday 25 Oct 2014 (Local Time) from KDUA Reporting Station
Clear Clear  
Wind Chill: 61°   Ceiling: Unl
Heat Index: 61°   Visibility: 10mi
Dew Point: 59°   Wind: 5mph
Humidity: 94%   Direction: 180°S
Pressure: 30.1"   Gusts: NA
Location:  33.99°N, 96.39°W
Report Text: KDUA 250615Z AUTO 18004KT 10SM CLR 16/15 A3010 RMK AO2
Loading
Personal Weather Stations






























Interactive Weather Map New forecast layout! Learn more

10-Day Weather Forecast

Advertisements
Track Severe Weather on mobile